Details From KSSI - Malcolm Mckinnon
To KCRE - Grand Strand
Flight Number -
Tags Decoded
Created
Modified
Stats Distance 214 nm / 397 km
Max Altitude 0 ft / 0 m
Waypoints 5
Social Downloads 2
Likes 0
Share VATSIM

Download

Looking for another format? Having issues loading an existing format? Contact us
Advertisement - Login to hide

Notes

Decoded

Route

KSSI HARPS RUBYS CHS KCRE

ID Type Via Altitude Latitude Longitude Leg Dist Tot Dist Heading (true) Name
O KSSI APT - 0 ft / 0 m 31.15616˚ -81.38894˚ - 0 nm - -
HARPS FIX - 0 ft / 0 m 31.69156˚ -81.25439˚ 32 nm 32 nm 12° / 12° -
RUBYS FIX - 0 ft / 0 m 32.14534˚ -80.63049˚ 41 nm 74 nm 49° / 50° -
CHS VOR - 0 ft / 0 m 32.89431˚ -80.03781˚ 54 nm 128 nm 34° / 34° CHARLESTON VORTAC
O KCRE APT - 0 ft / 0 m 33.80603˚ -78.73105˚ 85 nm 214 nm 50° / 50° -

Altitude Profile

Advertisement - Login to hide

Weather


0- 5 10 15 20 25 30 35+ Temperature / ° C

Clouds and Precipitation
Forecast for 2017-12-14 00:00 UTC. Updated 2 hours ago

Ground ~20,000 ft ~40,000 ft Winds

KSSI

Details ICAO KSSI (SSI)
Name MALCOLM MCKINNON
Region United States
Timezone America/New_York (UTC-5.0)
Stats Elevation 19 ft / 6 m (AMSL)
Location 31.151867° -81.390263°
Runways 2
Magnetic Variation 6.756° W

METAR

KSSI 140053Z AUTO 23005KT 10SM CLR 09/02 A2999 RMK AO2 SLP158 T00890022

Decode

TAF

TAF KSSI 132338Z 1400/1424 23006KT P6SM SCT250 FM141400 24010KT P6SM BKN250

Decode

Departure Runways

ID Width Length Bearing (true) Bearing (mag) Surface Threshold Offset Overrun Length
04 100 ft / 30 m 5,808 ft / 1,770 m 35.96° 42.72° Asphalt 1,000 ft / 305 m 0 ft / 0 m
16 75 ft / 23 m 3,320 ft / 1,012 m 154.23° 160.99° Asphalt 0 ft / 0 m 0 ft / 0 m
22 100 ft / 30 m 5,808 ft / 1,770 m 215.97° 222.73° Asphalt 910 ft / 277 m 0 ft / 0 m
34 75 ft / 23 m 3,320 ft / 1,012 m 334.23° 340.99° Asphalt 0 ft / 0 m 233 ft / 71 m

KCRE

Details ICAO KCRE
Name Grand Strand
Region United States
Timezone America/New_York (UTC-5.0)
Stats Elevation 32 ft / 10 m (AMSL)
Location 33.811749° -78.723941°
Runways 1
Magnetic Variation 8.862° W

METAR

KCRE 140053Z 23009KT 10SM CLR 06/M06 A2989 RMK AO1 SLP123 T00561061

Decode

TAF

TAF KCRE 132320Z 1400/1424 21005KT P6SM SKC FM140500 23010G15KT P6SM FEW120 SCT250 WS015/25040KT TEMPO 1406/1410 23012G22KT FM141500 26009KT P6SM FEW150 SCT250

Decode

Destination Runways

ID Width Length Bearing (true) Bearing (mag) Surface Threshold Offset Overrun Length
05 98 ft / 30 m 5,998 ft / 1,828 m 45.94° 54.80° Asphalt 0 ft / 0 m 0 ft / 0 m
23 98 ft / 30 m 5,998 ft / 1,828 m 225.94° 234.80° Asphalt 0 ft / 0 m 0 ft / 0 m

Approach Navaids

Runway Type Ident Frequency Range Bearing (true) Bearing (mag) Slope Elevation
23 Localiser ICRE 111.70 MHz 18 nm / 33 km 225.94° 234.80° - 900 ft / 274 m (AMSL)
23 Glidescope ICRE 111.70 MHz 10 nm / 19 km 225.94° 234.80° 2.98° 31 ft / 9 m (AMSL)